createdAt,value
2022-11-17T00:00:44.831Z,98213.20
2022-11-17T00:03:15.854Z,98208.80
2022-11-17T00:05:44.753Z,98212.80
2022-11-17T00:08:12.697Z,98209.80
2022-11-17T00:10:41.790Z,98213.40
2022-11-17T00:13:29.868Z,98218.60
2022-11-17T00:15:57.844Z,98218.60
2022-11-17T00:18:45.561Z,98214.40
2022-11-17T00:21:19.476Z,98217.00
2022-11-17T00:23:48.458Z,98219.20
2022-11-17T00:26:27.802Z,98226.20
2022-11-17T00:29:01.286Z,98225.20
2022-11-17T00:31:49.732Z,98225.60
2022-11-17T00:34:20.424Z,98229.60
2022-11-17T00:36:50.600Z,98228.20
2022-11-17T00:39:20.779Z,98228.20
2022-11-17T00:41:48.832Z,98231.00
2022-11-17T00:44:16.984Z,98237.00
2022-11-17T00:46:45.018Z,98233.00
2022-11-17T00:49:13.004Z,98234.60
2022-11-17T00:51:41.194Z,98230.00
2022-11-17T00:54:11.863Z,98234.00
2022-11-17T00:56:39.954Z,98229.80
2022-11-17T00:59:07.832Z,98223.80
2022-11-17T01:01:36.104Z,98220.00
2022-11-17T01:04:04.631Z,98220.40
2022-11-17T01:06:43.525Z,98222.20
2022-11-17T01:09:17.261Z,98213.60
2022-11-17T01:11:45.625Z,98217.60
2022-11-17T01:14:16.903Z,98211.80
2022-11-17T01:16:44.936Z,98214.80
2022-11-17T01:19:16.695Z,98218.60
2022-11-17T01:21:44.654Z,98212.00
2022-11-17T01:24:13.465Z,98213.20
2022-11-17T01:26:41.605Z,98213.40
2022-11-17T01:29:12.295Z,98208.40
2022-11-17T01:31:43.622Z,98206.00
2022-11-17T01:34:13.165Z,98206.40
2022-11-17T01:37:01.511Z,98208.40
2022-11-17T01:39:30.426Z,98207.40
2022-11-17T01:41:58.570Z,98200.60
2022-11-17T01:44:41.802Z,98212.20
2022-11-17T01:47:43.370Z,98206.60
2022-11-17T01:50:37.596Z,98211.00
2022-11-17T01:53:09.081Z,98204.00
2022-11-17T01:55:41.764Z,98205.40
2022-11-17T01:58:20.472Z,98208.80
2022-11-17T02:00:48.972Z,98208.60
2022-11-17T02:03:16.971Z,98208.40
2022-11-17T02:06:14.022Z,98211.80
2022-11-17T02:08:43.644Z,98206.40
2022-11-17T02:11:17.212Z,98220.60
2022-11-17T02:13:45.163Z,98215.60
2022-11-17T02:16:14.449Z,98217.40
2022-11-17T02:18:43.661Z,98226.20
2022-11-17T02:21:44.783Z,98222.40
2022-11-17T02:24:37.916Z,98219.40
2022-11-17T02:27:37.829Z,98216.40
2022-11-17T02:30:10.820Z,98215.60
2022-11-17T02:32:56.369Z,98211.60
2022-11-17T02:36:21.176Z,98210.80
2022-11-17T02:38:55.230Z,98210.00
2022-11-17T02:41:29.293Z,98210.20
2022-11-17T02:44:11.356Z,98207.40
2022-11-17T02:46:56.125Z,98200.60
2022-11-17T02:49:36.020Z,98212.00
2022-11-17T02:52:04.060Z,98220.80
2022-11-17T02:54:32.017Z,98214.80
2022-11-17T02:56:59.868Z,98204.20
2022-11-17T02:59:35.112Z,98215.80
2022-11-17T03:02:59.518Z,98211.40
2022-11-17T03:05:38.418Z,98213.40
2022-11-17T03:08:13.753Z,98216.00
2022-11-17T03:10:56.788Z,98214.60
2022-11-17T03:14:02.775Z,98216.00
2022-11-17T03:16:35.917Z,98209.60
2022-11-17T03:19:36.281Z,98210.20
2022-11-17T03:22:32.508Z,98214.60
2022-11-17T03:25:06.224Z,98210.00
2022-11-17T03:27:37.377Z,98216.80
2022-11-17T03:30:08.426Z,98218.40
2022-11-17T03:32:42.330Z,98213.80
2022-11-17T03:35:13.685Z,98221.80
2022-11-17T03:37:52.234Z,98214.40
2022-11-17T03:40:23.385Z,98211.20
2022-11-17T03:42:54.052Z,98219.20
2022-11-17T03:45:50.571Z,98224.40
2022-11-17T03:48:28.404Z,98218.00
2022-11-17T03:51:18.159Z,98213.40
2022-11-17T03:53:46.998Z,98215.20
2022-11-17T03:56:42.300Z,98212.00
2022-11-17T03:59:26.220Z,98205.80
2022-11-17T04:01:54.463Z,98202.80
2022-11-17T04:04:22.694Z,98206.80
2022-11-17T04:06:52.201Z,98211.20
2022-11-17T04:09:24.162Z,98210.00
2022-11-17T04:12:11.587Z,98214.80
2022-11-17T04:14:58.210Z,98206.20
2022-11-17T04:17:27.881Z,98209.40
2022-11-17T04:19:55.718Z,98218.00
2022-11-17T04:22:23.502Z,98220.80
2022-11-17T04:24:52.184Z,98210.80
2022-11-17T04:27:38.793Z,98210.60
2022-11-17T04:30:07.679Z,98211.00
2022-11-17T04:32:37.141Z,98212.60
2022-11-17T04:35:05.492Z,98215.20
2022-11-17T04:37:33.290Z,98214.20
2022-11-17T04:40:06.514Z,98214.80
2022-11-17T04:42:34.309Z,98212.40
2022-11-17T04:45:02.115Z,98212.20
2022-11-17T04:47:29.909Z,98217.40
2022-11-17T04:49:57.672Z,98219.00
2022-11-17T04:52:29.820Z,98221.20
2022-11-17T04:54:57.953Z,98220.00
2022-11-17T04:57:25.720Z,98223.00
2022-11-17T04:59:53.743Z,98218.00
2022-11-17T05:02:21.686Z,98206.80
2022-11-17T05:04:58.726Z,98209.60
2022-11-17T05:07:28.072Z,98213.00
2022-11-17T05:09:58.049Z,98217.60
2022-11-17T05:12:44.377Z,98224.20
2022-11-17T05:15:32.243Z,98221.20
2022-11-17T05:18:00.089Z,98226.40
2022-11-17T05:20:29.002Z,98222.80
2022-11-17T05:23:15.662Z,98227.20
2022-11-17T05:25:44.856Z,98224.80
2022-11-17T05:28:13.180Z,98225.20
2022-11-17T05:30:40.921Z,98226.60
2022-11-17T05:33:08.816Z,98229.00
2022-11-17T05:35:36.696Z,98231.20
2022-11-17T05:38:04.530Z,98230.40
2022-11-17T05:40:34.517Z,98229.80
2022-11-17T05:43:02.323Z,98239.40
2022-11-17T05:45:30.096Z,98232.60
2022-11-17T05:48:01.742Z,98231.40
2022-11-17T05:50:29.573Z,98227.00
2022-11-17T05:53:02.147Z,98234.20
2022-11-17T05:55:32.066Z,98235.80
2022-11-17T05:58:07.544Z,98230.00
2022-11-17T06:00:37.561Z,98235.20
2022-11-17T06:03:08.451Z,98231.20
2022-11-17T06:05:36.363Z,98231.60
2022-11-17T06:08:04.573Z,98233.60
2022-11-17T06:10:34.214Z,98236.20
2022-11-17T06:13:02.002Z,98233.20
2022-11-17T06:15:29.981Z,98244.80
2022-11-17T06:18:01.996Z,98247.40
2022-11-17T06:20:35.407Z,98248.60
2022-11-17T06:23:05.160Z,98251.60
2022-11-17T06:25:35.487Z,98252.00
2022-11-17T06:28:05.282Z,98262.00
2022-11-17T06:30:33.172Z,98249.00
2022-11-17T06:33:02.694Z,98256.80
2022-11-17T06:35:33.535Z,98258.00
2022-11-17T06:38:02.581Z,98253.20
2022-11-17T06:40:34.142Z,98257.00
2022-11-17T06:43:08.759Z,98262.00
2022-11-17T06:45:38.399Z,98262.40
2022-11-17T06:48:07.599Z,98261.40
2022-11-17T06:50:35.498Z,98263.40
2022-11-17T06:53:05.726Z,98259.40
2022-11-17T06:55:38.065Z,98257.00
2022-11-17T06:58:08.246Z,98264.00
2022-11-17T07:00:36.921Z,98259.80
2022-11-17T07:03:09.756Z,98267.40
2022-11-17T07:05:40.125Z,98268.80
2022-11-17T07:08:09.026Z,98273.80
2022-11-17T07:10:38.107Z,98258.40
2022-11-17T07:13:06.548Z,98262.60
2022-11-17T07:15:34.321Z,98259.60
2022-11-17T07:18:02.177Z,98264.80
2022-11-17T07:20:29.963Z,98275.00
2022-11-17T07:23:00.964Z,98276.20
2022-11-17T07:25:30.689Z,98278.00
2022-11-17T07:28:00.119Z,98270.00
2022-11-17T07:30:29.775Z,98264.80
2022-11-17T07:33:01.122Z,98266.40
2022-11-17T07:35:29.021Z,98266.60
2022-11-17T07:38:03.085Z,98272.20
2022-11-17T07:40:31.264Z,98275.20
2022-11-17T07:42:59.355Z,98279.40
2022-11-17T07:45:31.901Z,98283.60
2022-11-17T07:48:01.737Z,98285.60
2022-11-17T07:50:29.782Z,98293.20
2022-11-17T07:52:58.001Z,98294.00
2022-11-17T07:55:26.131Z,98294.80
2022-11-17T07:58:02.013Z,98293.40
2022-11-17T08:00:31.295Z,98295.80
2022-11-17T08:03:04.324Z,98297.20
2022-11-17T08:05:41.663Z,98300.40
2022-11-17T08:08:13.155Z,98295.60
2022-11-17T08:10:41.025Z,98286.40
2022-11-17T08:13:09.352Z,98289.60
2022-11-17T08:15:37.163Z,98292.60
2022-11-17T08:18:06.258Z,98290.40
2022-11-17T08:20:34.013Z,98292.40
2022-11-17T08:23:02.379Z,98291.80
2022-11-17T08:25:30.141Z,98295.60
2022-11-17T08:27:58.339Z,98297.00
2022-11-17T08:30:26.619Z,98298.80
2022-11-17T08:32:54.687Z,98301.20
2022-11-17T08:35:24.442Z,98299.60
2022-11-17T08:37:53.049Z,98295.40
2022-11-17T08:40:21.430Z,98289.20
2022-11-17T08:43:00.440Z,98288.40
2022-11-17T08:45:29.092Z,98293.40
2022-11-17T08:47:57.232Z,98292.80
2022-11-17T08:50:25.417Z,98289.00
2022-11-17T08:52:53.403Z,98299.40
2022-11-17T08:55:21.322Z,98299.80
2022-11-17T08:57:49.372Z,98300.00
2022-11-17T09:00:19.946Z,98296.20
2022-11-17T09:02:47.826Z,98295.00
2022-11-17T09:05:15.538Z,98296.20
2022-11-17T09:07:43.402Z,98295.40
2022-11-17T09:10:11.607Z,98299.00
2022-11-17T09:12:39.403Z,98298.40
2022-11-17T09:15:08.356Z,98294.60
2022-11-17T09:17:36.356Z,98290.00
2022-11-17T09:20:05.394Z,98289.20
2022-11-17T09:22:33.181Z,98289.20
2022-11-17T09:25:01.378Z,98282.60
2022-11-17T09:27:29.189Z,98279.40
2022-11-17T09:29:57.032Z,98275.00
2022-11-17T09:32:24.893Z,98279.80
2022-11-17T09:34:52.857Z,98267.40
2022-11-17T09:37:22.634Z,98266.80
2022-11-17T09:39:50.412Z,98270.80
2022-11-17T09:42:18.616Z,98267.00
2022-11-17T09:45:28.277Z,98274.40
2022-11-17T09:48:33.796Z,98266.80
2022-11-17T09:50:50.822Z,98271.60
2022-11-17T09:54:20.260Z,98267.20
2022-11-17T09:56:48.162Z,98268.80
2022-11-17T09:59:18.347Z,98278.20
2022-11-17T10:01:46.225Z,98273.80
2022-11-17T10:04:17.002Z,98279.80
2022-11-17T10:06:46.608Z,98278.60
2022-11-17T10:09:36.256Z,98277.80
2022-11-17T10:12:18.751Z,98275.80
2022-11-17T10:14:48.746Z,98274.20
2022-11-17T10:17:16.785Z,98267.00
2022-11-17T10:19:45.667Z,98269.20
2022-11-17T10:22:40.113Z,98262.00
2022-11-17T10:25:22.392Z,98265.60
2022-11-17T10:27:54.095Z,98264.40
2022-11-17T10:30:25.316Z,98266.20
2022-11-17T10:32:55.758Z,98264.40
2022-11-17T10:35:30.771Z,98262.60
2022-11-17T10:38:08.585Z,98265.20
2022-11-17T10:40:39.930Z,98265.40
2022-11-17T10:43:13.909Z,98265.00
2022-11-17T10:46:12.711Z,98266.40
2022-11-17T10:48:40.991Z,98263.20
2022-11-17T10:51:19.577Z,98266.80
2022-11-17T10:54:06.106Z,98261.40
2022-11-17T10:56:54.980Z,98268.80
2022-11-17T10:59:31.441Z,98264.40
2022-11-17T11:02:30.588Z,98267.00
2022-11-17T11:05:14.760Z,98266.40
2022-11-17T11:08:23.315Z,98269.40
2022-11-17T11:11:25.276Z,98268.00
2022-11-17T11:14:15.691Z,98275.20
2022-11-17T11:16:48.184Z,98272.40
2022-11-17T11:19:18.402Z,98275.40
2022-11-17T11:22:21.561Z,98274.60
2022-11-17T11:25:34.362Z,98276.80
2022-11-17T11:28:46.225Z,98283.60
2022-11-17T11:31:28.214Z,98276.40
2022-11-17T11:34:22.037Z,98285.40
2022-11-17T11:36:54.083Z,98290.40
2022-11-17T11:39:48.703Z,98294.00
2022-11-17T11:42:44.542Z,98292.80
2022-11-17T11:45:46.688Z,98287.00
2022-11-17T11:48:17.009Z,98282.80
2022-11-17T11:50:53.775Z,98278.00
2022-11-17T11:53:40.284Z,98287.20
2022-11-17T11:56:26.587Z,98285.20
2022-11-17T11:59:08.182Z,98270.80
2022-11-17T12:01:49.068Z,98274.40
2022-11-17T12:04:57.608Z,98274.20
2022-11-17T12:08:10.607Z,98273.20
2022-11-17T12:10:50.900Z,98271.00
2022-11-17T12:13:19.525Z,98275.40
2022-11-17T12:15:47.417Z,98272.20
2022-11-17T12:18:18.578Z,98277.00
2022-11-17T12:21:12.764Z,98278.80
2022-11-17T12:24:18.015Z,98271.20
2022-11-17T12:26:45.826Z,98274.60
2022-11-17T12:29:19.795Z,98274.80
2022-11-17T12:31:56.776Z,98271.00
2022-11-17T12:34:33.852Z,98272.80
2022-11-17T12:37:22.190Z,98277.80
2022-11-17T12:39:57.996Z,98284.40
2022-11-17T12:42:27.586Z,98284.00
2022-11-17T12:44:56.810Z,98280.60
2022-11-17T12:47:27.346Z,98282.80
2022-11-17T12:50:09.095Z,98272.80
2022-11-17T12:53:12.320Z,98266.00
2022-11-17T12:56:13.105Z,98279.20
2022-11-17T12:59:09.224Z,98270.80
2022-11-17T13:02:18.148Z,98273.40
2022-11-17T13:04:51.308Z,98274.00
2022-11-17T13:07:25.893Z,98274.20
2022-11-17T13:09:58.565Z,98273.80
2022-11-17T13:12:31.527Z,98268.80
2022-11-17T13:15:02.867Z,98279.00
2022-11-17T13:17:40.247Z,98272.40
2022-11-17T13:20:29.491Z,98273.00
2022-11-17T13:23:15.190Z,98274.60
2022-11-17T13:25:43.037Z,98281.40
2022-11-17T13:28:35.945Z,98285.80
2022-11-17T13:31:03.729Z,98283.60
2022-11-17T13:33:38.389Z,98289.00
2022-11-17T13:36:19.687Z,98282.00
2022-11-17T13:38:49.833Z,98283.80
2022-11-17T13:41:19.528Z,98282.40
2022-11-17T13:43:47.731Z,98284.20
2022-11-17T13:46:15.549Z,98282.40
2022-11-17T13:48:47.471Z,98283.60
2022-11-17T13:51:42.473Z,98280.60
2022-11-17T13:54:14.048Z,98281.80
2022-11-17T13:56:46.508Z,98287.00
2022-11-17T13:59:29.050Z,98277.20
2022-11-17T14:02:19.430Z,98276.80
2022-11-17T14:05:27.808Z,98271.60
2022-11-17T14:07:57.709Z,98279.20
2022-11-17T14:10:27.751Z,98280.00
2022-11-17T14:13:01.613Z,98275.80
2022-11-17T14:15:37.911Z,98274.40
2022-11-17T14:18:21.514Z,98277.40
2022-11-17T14:20:49.566Z,98281.00
2022-11-17T14:23:18.227Z,98278.60
2022-11-17T14:25:50.279Z,98283.40
2022-11-17T14:28:20.805Z,98287.20
2022-11-17T14:30:53.843Z,98291.40
2022-11-17T14:33:22.260Z,98290.20
2022-11-17T14:35:59.016Z,98287.60
2022-11-17T14:38:26.808Z,98287.00
2022-11-17T14:40:55.115Z,98280.80
2022-11-17T14:43:23.322Z,98283.20
2022-11-17T14:45:51.249Z,98274.60
2022-11-17T14:48:20.382Z,98268.40
2022-11-17T14:50:48.546Z,98270.80
2022-11-17T14:53:16.361Z,98279.40
2022-11-17T14:55:44.345Z,98281.40
2022-11-17T14:58:12.320Z,98278.80
2022-11-17T15:00:40.156Z,98282.20
2022-11-17T15:03:07.995Z,98278.60
2022-11-17T15:05:36.533Z,98278.60
2022-11-17T15:08:05.115Z,98282.00
2022-11-17T15:10:33.288Z,98272.00
2022-11-17T15:13:01.129Z,98267.60
2022-11-17T15:15:29.016Z,98262.40
2022-11-17T15:17:56.791Z,98258.20
2022-11-17T15:20:24.676Z,98260.00
2022-11-17T15:22:52.518Z,98262.00
2022-11-17T15:25:20.315Z,98255.00
2022-11-17T15:27:48.411Z,98253.20
2022-11-17T15:30:17.339Z,98252.00
2022-11-17T15:32:45.125Z,98250.00
2022-11-17T15:35:12.947Z,98243.20
2022-11-17T15:37:40.720Z,98236.60
2022-11-17T15:40:10.733Z,98231.80
2022-11-17T15:42:39.253Z,98230.00
2022-11-17T15:45:08.090Z,98223.00
2022-11-17T15:47:36.090Z,98230.00
2022-11-17T15:50:04.898Z,98223.60
2022-11-17T15:52:56.645Z,98226.20
2022-11-17T15:55:20.716Z,98222.20
2022-11-17T15:57:48.505Z,98218.40
2022-11-17T16:00:17.435Z,98218.20
2022-11-17T16:02:45.194Z,98213.80
2022-11-17T16:05:13.043Z,98213.20
2022-11-17T16:07:41.021Z,98209.20
2022-11-17T16:10:09.727Z,98214.00
2022-11-17T16:12:37.813Z,98215.20
2022-11-17T16:15:07.091Z,98207.00
2022-11-17T16:17:34.912Z,98216.20
2022-11-17T16:20:02.879Z,98209.60
2022-11-17T16:22:31.366Z,98208.20
2022-11-17T16:24:59.316Z,98209.00
2022-11-17T16:27:27.239Z,98218.00
2022-11-17T16:29:55.310Z,98215.00
2022-11-17T16:32:23.192Z,98211.20
2022-11-17T16:34:51.184Z,98209.20
2022-11-17T16:37:18.938Z,98208.40
2022-11-17T16:39:46.692Z,98199.60
2022-11-17T16:42:14.693Z,98201.00
2022-11-17T16:44:42.640Z,98194.20
2022-11-17T16:47:10.515Z,98190.00
2022-11-17T16:49:38.438Z,98191.00
2022-11-17T16:52:06.363Z,98195.00
2022-11-17T16:54:34.177Z,98194.60
2022-11-17T16:57:01.983Z,98196.80
2022-11-17T16:59:29.755Z,98198.20
2022-11-17T17:01:57.668Z,98201.40
2022-11-17T17:04:26.864Z,98197.60
2022-11-17T17:06:55.027Z,98197.00
2022-11-17T17:09:27.718Z,98191.40
2022-11-17T17:11:56.039Z,98202.80
2022-11-17T17:14:23.958Z,98200.60
2022-11-17T17:16:51.827Z,98195.40
2022-11-17T17:19:19.852Z,98191.00
2022-11-17T17:21:48.404Z,98190.40
2022-11-17T17:24:16.202Z,98189.20
2022-11-17T17:26:44.040Z,98190.00
2022-11-17T17:29:12.760Z,98191.60
2022-11-17T17:31:41.727Z,98191.60
2022-11-17T17:34:11.598Z,98187.20
2022-11-17T17:36:39.443Z,98187.80
2022-11-17T17:39:07.966Z,98192.60
2022-11-17T17:41:39.547Z,98192.20
2022-11-17T17:44:08.176Z,98199.20
2022-11-17T17:46:38.178Z,98202.60
2022-11-17T17:49:06.270Z,98198.20
2022-11-17T17:51:40.261Z,98207.40
2022-11-17T17:54:14.158Z,98206.60
2022-11-17T17:56:42.010Z,98212.00
2022-11-17T17:59:09.810Z,98206.00
2022-11-17T18:01:40.787Z,98214.20
2022-11-17T18:04:15.367Z,98220.20
2022-11-17T18:06:47.280Z,98224.00
2022-11-17T18:09:19.059Z,98227.20
2022-11-17T18:11:50.529Z,98221.00
2022-11-17T18:14:24.991Z,98223.20
2022-11-17T18:16:54.102Z,98220.40
2022-11-17T18:19:22.339Z,98220.00
2022-11-17T18:21:50.307Z,98225.80
2022-11-17T18:24:18.205Z,98231.00
2022-11-17T18:26:46.161Z,98225.40
2022-11-17T18:29:16.436Z,98216.60
2022-11-17T18:31:46.892Z,98221.80
2022-11-17T18:34:24.261Z,98229.00
2022-11-17T18:36:55.670Z,98229.80
2022-11-17T18:39:24.728Z,98231.00
2022-11-17T18:41:52.546Z,98234.00
2022-11-17T18:44:20.394Z,98231.80
2022-11-17T18:46:48.435Z,98240.40
2022-11-17T18:49:16.683Z,98237.60
2022-11-17T18:51:44.880Z,98232.80
2022-11-17T18:54:13.250Z,98246.20
2022-11-17T18:56:41.129Z,98242.60
2022-11-17T18:59:12.032Z,98240.00
2022-11-17T19:01:41.411Z,98235.20
2022-11-17T19:04:10.684Z,98235.80
2022-11-17T19:06:38.475Z,98229.00
2022-11-17T19:09:06.947Z,98226.80
2022-11-17T19:11:34.860Z,98224.00
2022-11-17T19:14:03.055Z,98226.80
2022-11-17T19:16:32.034Z,98218.40
2022-11-17T19:18:59.925Z,98221.20
2022-11-17T19:21:33.682Z,98221.00
2022-11-17T19:24:03.357Z,98215.80
2022-11-17T19:26:33.622Z,98221.20
2022-11-17T19:29:12.651Z,98212.00
2022-11-17T19:31:44.007Z,98214.00
2022-11-17T19:34:12.122Z,98209.00
2022-11-17T19:36:40.253Z,98214.60
2022-11-17T19:39:08.058Z,98207.40
2022-11-17T19:41:39.792Z,98202.40
2022-11-17T19:44:08.616Z,98207.60
2022-11-17T19:46:36.638Z,98203.00
2022-11-17T19:49:06.012Z,98199.00
2022-11-17T19:51:36.530Z,98192.60
2022-11-17T19:54:07.366Z,98192.80
2022-11-17T19:56:35.568Z,98189.40
2022-11-17T19:59:03.607Z,98184.80
2022-11-17T20:01:32.511Z,98183.20
2022-11-17T20:04:01.283Z,98183.20
2022-11-17T20:06:34.788Z,98178.80
2022-11-17T20:09:08.034Z,98179.40
2022-11-17T20:11:35.993Z,98177.80
2022-11-17T20:14:03.821Z,98174.20
2022-11-17T20:16:32.254Z,98171.40
2022-11-17T20:19:01.374Z,98169.60
2022-11-17T20:21:30.003Z,98160.40
2022-11-17T20:23:59.141Z,98160.60
2022-11-17T20:26:32.287Z,98160.40
2022-11-17T20:29:00.433Z,98151.60
2022-11-17T20:31:30.881Z,98151.40
2022-11-17T20:34:00.847Z,98149.20
2022-11-17T20:36:32.013Z,98150.80
2022-11-17T20:39:02.177Z,98148.80
2022-11-17T20:41:30.243Z,98150.80
2022-11-17T20:43:59.433Z,98145.40
2022-11-17T20:46:27.604Z,98147.80
2022-11-17T20:48:55.685Z,98134.00
2022-11-17T20:51:24.658Z,98130.80
2022-11-17T20:53:52.636Z,98126.20
2022-11-17T20:56:22.454Z,98126.40
2022-11-17T20:58:50.324Z,98123.40
2022-11-17T21:01:20.633Z,98123.00
2022-11-17T21:03:50.857Z,98116.20
2022-11-17T21:06:19.933Z,98117.60
2022-11-17T21:08:47.711Z,98113.40
2022-11-17T21:11:36.365Z,98108.20
2022-11-17T21:14:05.870Z,98108.20
2022-11-17T21:16:34.161Z,98106.20
2022-11-17T21:19:02.021Z,98107.60
2022-11-17T21:21:31.391Z,98109.00
2022-11-17T21:23:59.910Z,98106.40
2022-11-17T21:26:30.528Z,98108.80
2022-11-17T21:29:04.816Z,98109.80
2022-11-17T21:31:34.553Z,98110.20
2022-11-17T21:34:04.573Z,98105.80
2022-11-17T21:36:33.778Z,98109.60
2022-11-17T21:39:01.979Z,98115.80
2022-11-17T21:41:32.050Z,98115.40
2022-11-17T21:44:01.978Z,98115.40
2022-11-17T21:46:32.328Z,98116.20
2022-11-17T21:49:01.754Z,98113.20
2022-11-17T21:51:34.691Z,98113.40
2022-11-17T21:54:04.828Z,98104.00
2022-11-17T21:56:32.979Z,98106.20
2022-11-17T21:59:11.234Z,98106.00
2022-11-17T22:01:39.541Z,98102.60
2022-11-17T22:04:07.442Z,98100.40
2022-11-17T22:06:35.543Z,98099.20
2022-11-17T22:09:03.424Z,98094.00
2022-11-17T22:11:38.328Z,98085.40
2022-11-17T22:14:08.261Z,98095.20
2022-11-17T22:16:41.206Z,98089.20
2022-11-17T22:19:09.784Z,98090.60
2022-11-17T22:21:38.463Z,98086.00
2022-11-17T22:24:08.198Z,98083.00
2022-11-17T22:26:38.459Z,98078.80
2022-11-17T22:29:15.689Z,98085.00
2022-11-17T22:31:45.288Z,98082.00
2022-11-17T22:34:13.628Z,98085.40
2022-11-17T22:36:41.755Z,98092.80
2022-11-17T22:39:09.602Z,98090.80
2022-11-17T22:41:37.454Z,98083.00
2022-11-17T22:44:05.437Z,98089.80
2022-11-17T22:46:33.649Z,98086.20
2022-11-17T22:49:01.543Z,98084.60
2022-11-17T22:51:47.979Z,98082.40
2022-11-17T22:54:15.772Z,98079.40
2022-11-17T22:56:43.540Z,98086.20
2022-11-17T22:59:11.434Z,98084.00
2022-11-17T23:01:39.369Z,98079.20
2022-11-17T23:04:07.311Z,98070.80
2022-11-17T23:06:35.121Z,98069.00
2022-11-17T23:09:02.879Z,98068.40
2022-11-17T23:11:37.104Z,98066.80
2022-11-17T23:14:07.823Z,98058.40
2022-11-17T23:16:39.013Z,98057.80
2022-11-17T23:19:06.997Z,98056.00
2022-11-17T23:21:34.837Z,98052.40
2022-11-17T23:24:04.006Z,98055.80
2022-11-17T23:26:31.774Z,98057.60
2022-11-17T23:28:59.573Z,98057.20
2022-11-17T23:31:28.270Z,98052.80
2022-11-17T23:33:56.346Z,98047.00
2022-11-17T23:36:24.413Z,98040.20
2022-11-17T23:38:52.644Z,98040.20
2022-11-17T23:41:21.172Z,98041.80
2022-11-17T23:43:53.644Z,98041.80
2022-11-17T23:46:23.896Z,98040.20
2022-11-17T23:48:51.953Z,98029.20
2022-11-17T23:51:21.987Z,98024.80
2022-11-17T23:53:49.905Z,98028.60
2022-11-17T23:56:20.624Z,98029.00
2022-11-17T23:58:49.032Z,98025.80
